Elisalex Schulte — 9V9154 — position and weather

sailwx.info

Track history (hours):
 
Tides and Currents Weather Stations Pressure Air Temp Water Temp Dewpoint Dewpoint Depression Visibility Wind Speed Wind Dir Waves Ship Positions

Elisalex Schulte

Last reported at 2018-Apr-22 06:29 UTC. Time now 2018-Apr-22 06:50 UTC.
Position N 49°28' E 000°33'.

Length 144 m; draft 6 m.

Type: Tanker. MMSI: 563052000.

Date/timePositionNaut miles runAvg speedWind from/ knotsBaromVisibWave heightAir tempDewpointWater temp
2018-Apr-22 06:29N 49°28' E 000°33'0 0.0
2018-Apr-22 05:59N 49°28' E 000°33'0 0.0
2018-Apr-22 05:29N 49°28' E 000°33'0 0.0
2018-Apr-22 04:59N 49°28' E 000°33'0 0.0
2018-Apr-22 04:29N 49°28' E 000°33'0 0.0
2018-Apr-22 03:59N 49°28' E 000°33'0 0.0
2018-Apr-22 03:29N 49°28' E 000°33'0 0.0
2018-Apr-22 02:59N 49°28' E 000°33'0 0.0
2018-Apr-22 02:29N 49°28' E 000°33'0 0.0
2018-Apr-22 01:59N 49°28' E 000°33'0 0.0
2018-Apr-22 01:29N 49°28' E 000°33'0 0.0
2018-Apr-22 00:59N 49°28' E 000°33'0 0.0
2018-Apr-22 00:29N 49°28' E 000°33'0 0.5
2018-Apr-22 00:01N 49°28' E 000°33'3 5.8
2018-Apr-21 23:30N 49°29' E 000°29'611.6
2018-Apr-21 23:01N 49°26' E 000°21'611.1
2018-Apr-21 22:31N 49°26' E 000°13'510.6
2018-Apr-21 22:01N 49°26' E 000°05'510.0
2018-Apr-21 21:31N 49°28' W 000°02'4 7.6
2018-Apr-21 21:00N 49°29' W 000°08'1 1.0
2018-Apr-21 20:25N 49°29' W 000°09'0 0.0
2018-Apr-21 19:58N 49°29' W 000°09'0 0.0
2018-Apr-21 19:28N 49°28' W 000°09'0 0.0
2018-Apr-21 18:58N 49°28' W 000°09'0 0.0
2018-Apr-21 18:28N 49°29' W 000°09'0 0.0
2018-Apr-21 17:58N 49°29' W 000°09'0 0.0
2018-Apr-21 17:28N 49°29' W 000°09'0 0.0
2018-Apr-21 16:58N 49°29' W 000°09'0 0.1
2018-Apr-21 16:28N 49°29' W 000°09'0 0.0
2018-Apr-21 15:58N 49°29' W 000°09'0 0.1
2018-Apr-21 15:28N 49°29' W 000°09'0 0.2
2018-Apr-21 14:58N 49°29' W 000°09'0 0.0
2018-Apr-21 14:28N 49°29' W 000°09'0 0.0
2018-Apr-21 13:58N 49°29' W 000°09'0 0.0
2018-Apr-21 13:28N 49°29' W 000°09'0 0.0
2018-Apr-21 12:58N 49°29' W 000°09'0 0.0
2018-Apr-21 12:28N 49°29' W 000°09'0 0.0
2018-Apr-21 11:58N 49°29' W 000°09'0 0.0
2018-Apr-21 11:25N 49°29' W 000°09'0 0.0
2018-Apr-21 10:58N 49°29' W 000°09'0 0.1
2018-Apr-21 10:28N 49°29' W 000°09'0 0.3
2018-Apr-21 09:55N 49°29' W 000°09'0 0.1
2018-Apr-21 09:28N 49°29' W 000°09'0 0.0
2018-Apr-21 08:58N 49°29' W 000°09'0 0.1
2018-Apr-21 08:28N 49°28' W 000°09'0 0.0
2018-Apr-21 07:55N 49°28' W 000°09'0 0.0
2018-Apr-21 07:28N 49°28' W 000°09'0 0.0
2018-Apr-21 06:58N 49°29' W 000°09'0 0.0
2018-Apr-21 06:28N 49°29' W 000°09'0 0.0
2018-Apr-21 05:58N 49°29' W 000°09'0 0.0
2018-Apr-21 05:28N 49°29' W 000°09'0 0.0
2018-Apr-21 04:58N 49°29' W 000°09'0 0.0
2018-Apr-21 04:28N 49°29' W 000°09'0 0.0
2018-Apr-21 03:58N 49°29' W 000°09'0 0.0
2018-Apr-21 03:28N 49°29' W 000°09'0 0.2
2018-Apr-21 02:58N 49°29' W 000°09'0 0.1
2018-Apr-21 02:28N 49°29' W 000°09'0 0.0
2018-Apr-21 01:58N 49°29' W 000°09'0 0.0
2018-Apr-21 01:28N 49°29' W 000°09'0 0.0
2018-Apr-21 00:58N 49°29' W 000°09'0 0.0
2018-Apr-21 00:28N 49°29' W 000°09'0 0.0
2018-Apr-20 23:55N 49°29' W 000°09'0 0.4
2018-Apr-20 23:28N 49°29' W 000°09'0 0.1
2018-Apr-20 22:58N 49°29' W 000°09'1 1.9
2018-Apr-20 22:30N 49°28' W 000°10'4 7.5
2018-Apr-20 22:00N 49°31' W 000°15'713.2
2018-Apr-20 21:30N 49°34' W 000°23'713.4
2018-Apr-20 21:00N 49°38' W 000°32'713.1
2018-Apr-20 20:30N 49°39' W 000°42'612.4
2018-Apr-20 20:01N 49°42' W 000°50'612.3
2018-Apr-20 19:30N 49°45' W 000°59'611.8
2018-Apr-20 19:00N 49°47' W 001°07'510.6
2018-Apr-20 18:30N 49°49' W 001°15'5 9.7
2018-Apr-20 18:00N 49°50' W 001°22'5 9.1
2018-Apr-20 17:31N 49°52' W 001°29'5 9.3
2018-Apr-20 17:00N 49°53' W 001°36'5 9.1
2018-Apr-20 16:31N 49°55' W 001°42'5 9.2
2018-Apr-20 16:00N 49°57' W 001°49'5 9.6
2018-Apr-20 15:30N 49°58' W 001°56'510.0
2018-Apr-20 15:01N 49°57' W 002°04'611.1
2018-Apr-20 14:31N 49°56' W 002°12'612.0
2018-Apr-20 14:00N 49°54' W 002°21'712.7
2018-Apr-20 13:27N 49°52' W 002°31'612.9
2018-Apr-20 13:01N 49°51' W 002°40'813.1
2018-Apr-20 12:26N 49°49' W 002°51'613.3
2018-Apr-20 12:01N 49°47' W 002°60'713.3
2018-Apr-20 11:30N 49°45' W 003°10'713.2
2018-Apr-20 11:00N 49°43' W 003°19'713.3
2018-Apr-20 10:30N 49°42' W 003°29'713.4
2018-Apr-20 10:00N 49°40' W 003°40'713.7
2018-Apr-20 09:30N 49°38' W 003°50'713.6
2018-Apr-20 09:00N 49°37' W 004°00'714.1
2018-Apr-20 08:30N 49°39' W 004°11'714.1
2018-Apr-20 08:00N 49°40' W 004°22'714.0
2018-Apr-20 07:30N 49°41' W 004°32'713.9
2018-Apr-20 07:00N 49°42' W 004°43'713.7
2018-Apr-20 06:30N 49°43' W 004°53'713.5
2018-Apr-20 06:00N 49°44' W 005°04'713.3
2018-Apr-20 05:30N 49°45' W 005°14'713.1
2018-Apr-20 05:01N 49°46' W 005°24'612.8
2018-Apr-20 04:30N 49°47' W 005°33'612.5
2018-Apr-20 04:00N 49°48' W 005°43'611.7
2018-Apr-20 03:30N 49°50' W 005°52'611.9
2018-Apr-20 03:00N 49°54' W 005°59'610.9
2018-Apr-20 02:30N 49°59' W 006°01'612.4
2018-Apr-20 01:59N 50°06' W 006°01'612.8
2018-Apr-20 01:31N 50°12' W 006°01'713.1
2018-Apr-20 01:00N 50°18' W 006°01'713.3
2018-Apr-20 00:31N 50°25' W 006°01'713.3
2018-Apr-20 00:01N 50°32' W 006°01'713.1
2018-Apr-19 23:27N 50°39' W 006°01'712.9
2018-Apr-19 22:53N 50°46' W 006°01'512.6
2018-Apr-19 22:30N 50°51' W 006°00'612.4
2018-Apr-19 22:00N 50°57' W 006°00'612.1
2018-Apr-19 21:30N 51°03' W 006°00'611.6
2018-Apr-19 21:00N 51°09' W 005°60'611.6
2018-Apr-19 20:30N 51°15' W 005°60'611.5
2018-Apr-19 20:00N 51°21' W 005°60'611.5
2018-Apr-19 19:31N 51°26' W 005°59'711.8
2018-Apr-19 18:55N 51°33' W 005°59'512.4
2018-Apr-19 18:30N 51°38' W 005°59'1312.7
2018-Apr-19 17:29N 51°51' W 005°54'4514.2
2018-Apr-19 14:21N 52°34' W 005°36'1513.2
2018-Apr-19 13:12N 52°49' W 005°29'312.2
2018-Apr-19 12:57N 52°52' W 005°27'62 9.5
2018-Apr-19 06:26N 53°34' W 004°12'613.9
2018-Apr-19 06:00N 53°34' W 004°01'714.1
2018-Apr-19 05:30N 53°33' W 003°49'714.2
2018-Apr-19 05:00N 53°33' W 003°38'714.5
2018-Apr-19 04:30N 53°33' W 003°26'712.7
2018-Apr-19 04:00N 53°31' W 003°15'510.7
2018-Apr-19 03:30N 53°31' W 003°06'5 9.4
2018-Apr-19 03:00N 53°27' W 003°01'0 0.1
2018-Apr-19 02:30N 53°27' W 003°01'0 0.5
2018-Apr-19 01:55N 53°27' W 003°01'0 0.0
2018-Apr-19 01:22N 53°27' W 003°01'0 0.0
2018-Apr-19 00:55N 53°27' W 003°01'0 0.0
2018-Apr-19 00:28N 53°27' W 003°01'0 0.0
2018-Apr-18 23:58N 53°27' W 003°01'0 0.0
2018-Apr-18 23:28N 53°27' W 003°01'0 0.0
2018-Apr-18 22:58N 53°27' W 003°01'0 0.0
2018-Apr-18 22:25N 53°27' W 003°01'0 0.0
2018-Apr-18 21:58N 53°27' W 003°01'0 0.0
2018-Apr-18 21:19N 53°27' W 003°01'0 0.0
2018-Apr-18 20:58N 53°27' W 003°01'0 0.0
2018-Apr-18 20:25N 53°27' W 003°01'0 0.0
2018-Apr-18 19:58N 53°27' W 003°01'0 0.0
2018-Apr-18 19:25N 53°27' W 003°01'0 0.0
2018-Apr-18 18:58N 53°27' W 003°01'0 0.0
2018-Apr-18 18:28N 53°27' W 003°01'0 0.0
2018-Apr-18 17:58N 53°27' W 003°01'0 0.0
2018-Apr-18 17:28N 53°27' W 003°01'0 0.0
2018-Apr-18 16:52N 53°27' W 003°01'0 0.0
2018-Apr-18 16:28N 53°27' W 003°01'0 0.0
2018-Apr-18 15:58N 53°27' W 003°01'0 0.0
2018-Apr-18 15:28N 53°27' W 003°01'0 0.0
2018-Apr-18 14:55N 53°27' W 003°01'0 0.0
2018-Apr-18 14:28N 53°27' W 003°01'0 0.0
2018-Apr-18 13:52N 53°27' W 003°01'0 0.0
2018-Apr-18 13:28N 53°27' W 003°01'0 0.0
2018-Apr-18 12:55N 53°27' W 003°01'0 0.0
2018-Apr-18 12:22N 53°27' W 003°01'0 0.0
2018-Apr-18 11:58N 53°27' W 003°01'0 0.0
2018-Apr-18 11:25N 53°27' W 003°01'0 0.0
2018-Apr-18 10:58N 53°27' W 003°01'0 0.0
2018-Apr-18 10:28N 53°27' W 003°01'0 0.0
2018-Apr-18 10:00N 53°27' W 003°01'0 0.8
2018-Apr-18 09:30N 53°27' W 003°01'0 1.0
2018-Apr-18 09:00N 53°27' W 003°00'1 1.0
2018-Apr-18 08:30N 53°26' W 003°00'0 0.3
2018-Apr-18 08:00N 53°26' W 003°00'0 0.0
2018-Apr-18 07:29N 53°26' W 003°00'0 0.0
2018-Apr-18 06:56N 53°26' W 003°00'0 0.0
2018-Apr-18 06:29N 53°26' W 003°00'0 0.0
2018-Apr-18 05:59N 53°26' W 003°00'0 0.0
2018-Apr-18 05:29N 53°26' W 003°00'0 0.0
2018-Apr-18 04:53N 53°26' W 003°00'0 0.0
2018-Apr-18 04:29N 53°26' W 003°00'0 0.0
2018-Apr-18 03:53N 53°26' W 003°00'0 0.0
2018-Apr-18 03:29N 53°26' W 003°00'0 0.0
2018-Apr-18 02:59N 53°26' W 003°00'0 0.0
2018-Apr-18 02:29N 53°26' W 003°00'0 0.0
2018-Apr-18 01:59N 53°26' W 003°00'0 0.0
2018-Apr-18 01:29N 53°26' W 003°00'0 0.0
2018-Apr-18 00:59N 53°26' W 003°00'0 0.0
2018-Apr-18 00:29N 53°26' W 003°00'0 0.0
2018-Apr-17 23:59N 53°26' W 003°00'0 0.0
2018-Apr-17 23:29N 53°26' W 003°00'0 0.0
2018-Apr-17 22:59N 53°26' W 003°00'0 0.0
2018-Apr-17 22:29N 53°26' W 003°00'0 0.0
2018-Apr-17 21:59N 53°26' W 003°00'0 0.0
2018-Apr-17 21:26N 53°26' W 003°00'0 0.0
2018-Apr-17 20:59N 53°26' W 003°00'0 0.0
2018-Apr-17 20:29N 53°26' W 003°00'0 0.0
2018-Apr-17 19:56N 53°26' W 003°00'0 0.0
2018-Apr-17 19:29N 53°26' W 003°00'0 0.0
2018-Apr-17 18:53N 53°26' W 003°00'0 0.0
2018-Apr-17 18:26N 53°26' W 003°00'0 0.0
2018-Apr-17 17:59N 53°26' W 003°00'0 0.0
2018-Apr-17 17:29N 53°26' W 003°00'0 0.0
2018-Apr-17 16:59N 53°26' W 003°00'0 0.0
2018-Apr-17 16:29N 53°26' W 003°00'0 0.0
2018-Apr-17 15:53N 53°26' W 003°00'0 0.0
2018-Apr-17 15:29N 53°26' W 003°00'0 0.0
2018-Apr-17 14:59N 53°26' W 003°00'0 0.0
2018-Apr-17 14:29N 53°26' W 003°00'0 0.0
2018-Apr-17 13:59N 53°26' W 003°00'0 0.0
2018-Apr-17 13:29N 53°26' W 003°00'0 0.0
2018-Apr-17 12:56N 53°26' W 003°00'0 0.0
2018-Apr-17 12:29N 53°26' W 003°00'0 0.2
2018-Apr-17 12:00N 53°26' W 003°00'1 1.1
2018-Apr-17 11:30N 53°26' W 003°00'0 0.2
2018-Apr-17 11:00N 53°26' W 003°01'0 0.2
2018-Apr-17 10:30N 53°26' W 003°01'0 1.0
2018-Apr-17 10:00N 53°26' W 003°01'3 7.0
2018-Apr-17 09:30N 53°29' W 003°05'4 8.4
2018-Apr-17 09:00N 53°32' W 003°10'4 8.8
2018-Apr-17 08:30N 53°31' W 003°17'3 6.2
2018-Apr-17 08:00N 53°31' W 003°23'3 5.9
2018-Apr-17 07:30N 53°31' W 003°28'611.9
2018-Apr-17 07:00N 53°31' W 003°37'712.7
2018-Apr-17 06:28N 53°30' W 003°49'214 9.1
2018-Apr-16 07:05N 50°02' W 005°01'110.8
2018-Apr-16 06:57N 50°03' W 005°01'3 7.4
2018-Apr-16 06:29N 50°06' W 005°02'3 5.8
2018-Apr-16 05:58N 50°09' W 005°02'3 0.1
2018-Apr-15 03:53N 50°07' W 005°01'2 4.9
2018-Apr-15 03:30N 50°05' W 004°60'2 4.9
2018-Apr-15 03:00N 50°06' W 004°56'1 2.7
2018-Apr-15 02:30N 50°07' W 004°55'1 1.4
2018-Apr-15 01:51N 50°06' W 004°54'0 1.3
2018-Apr-15 01:30N 50°06' W 004°54'1 1.2
2018-Apr-15 00:57N 50°05' W 004°54'1 1.1
2018-Apr-15 00:30N 50°05' W 004°53'0 0.3
2018-Apr-14 23:50N 50°05' W 004°53'2 5.7
2018-Apr-14 23:30N 50°05' W 004°56'1 2.2
2018-Apr-14 22:58N 50°05' W 004°58'2710.1
2018-Apr-14 20:19N 50°00' W 004°17'2111.3
2018-Apr-14 18:27N 50°00' W 003°44'610.6
2018-Apr-14 17:55N 50°00' W 003°35'510.5
2018-Apr-14 17:26N 50°00' W 003°28'510.6
2018-Apr-14 17:00N 50°00' W 003°20'610.8
2018-Apr-14 16:26N 49°60' W 003°11'511.1
2018-Apr-14 16:00N 49°60' W 003°03'611.6
2018-Apr-14 15:30N 49°60' W 002°54'612.3
2018-Apr-14 15:00N 50°02' W 002°45'713.1
2018-Apr-14 14:28N 50°04' W 002°35'1614.3
2018-Apr-14 13:20N 50°08' W 002°10'516.2
2018-Apr-14 13:00N 50°09' W 002°03'815.6
2018-Apr-14 12:30N 50°12' W 001°51'815.3
2018-Apr-14 12:00N 50°14' W 001°39'814.7
2018-Apr-14 11:29N 50°16' W 001°28'914.2
2018-Apr-14 10:52N 50°18' W 001°15'613.3
2018-Apr-14 10:24N 50°20' W 001°05'512.5
2018-Apr-14 10:00N 50°21' W 000°58'611.5
2018-Apr-14 09:30N 50°23' W 000°49'510.6
2018-Apr-14 09:00N 50°24' W 000°41'1110.1
2018-Apr-14 07:55N 50°27' W 000°24'410.3
2018-Apr-14 07:30N 50°28' W 000°18'510.7
2018-Apr-14 07:00N 50°30' W 000°10'611.1
2018-Apr-14 06:29N 50°31' W 000°01'611.5
2018-Apr-14 05:59N 50°33' E 000°08'611.5
2018-Apr-14 05:30N 50°34' E 000°16'611.9
2018-Apr-14 05:00N 50°36' E 000°25'612.6
2018-Apr-14 04:30N 50°37' E 000°35'612.9
2018-Apr-14 04:00N 50°41' E 000°43'713.0
2018-Apr-14 03:30N 50°45' E 000°51'612.8
2018-Apr-14 03:00N 50°49' E 000°59'612.7
2018-Apr-14 02:30N 50°53' E 001°07'812.6
2018-Apr-14 01:51N 50°59' E 001°17'411.9
2018-Apr-14 01:30N 51°01' E 001°22'611.4
2018-Apr-14 01:00N 51°05' E 001°29'510.4
2018-Apr-14 00:30N 51°08' E 001°35'510.0
2018-Apr-14 00:00N 51°11' E 001°42'510.0
2018-Apr-13 23:30N 51°15' E 001°47'510.5
2018-Apr-13 23:00N 51°20' E 001°51'611.1
2018-Apr-13 22:30N 51°24' E 001°56'611.5
2018-Apr-13 22:00N 51°29' E 002°01'611.7
2018-Apr-13 21:30N 51°33' E 002°07'612.2
2018-Apr-13 21:00N 51°38' E 002°14'712.9
2018-Apr-13 20:29N 51°43' E 002°21'5212.4
2018-Apr-13 16:15N 52°04' E 003°39'412.5
2018-Apr-13 15:58N 52°04' E 003°45'612.1
2018-Apr-13 15:30N 52°03' E 003°54'4 8.5
2018-Apr-13 15:00N 52°01' E 003°60'5 9.1
2018-Apr-13 14:30N 51°58' E 004°05'1 2.0
2018-Apr-13 13:58N 51°57' E 004°05'0 0.0
2018-Apr-13 13:19N 51°57' E 004°05'0 0.0
2018-Apr-13 12:58N 51°57' E 004°05'0 0.0
2018-Apr-13 12:25N 51°57' E 004°05'0 0.0
2018-Apr-13 11:55N 51°57' E 004°05'0 0.0
2018-Apr-13 11:16N 51°57' E 004°05'0 0.0
2018-Apr-13 10:58N 51°57' E 004°05'0 0.0
2018-Apr-13 10:19N 51°57' E 004°05'0 0.0
2018-Apr-13 09:58N 51°57' E 004°05'0 0.0
2018-Apr-13 09:28N 51°57' E 004°05'0 0.0
2018-Apr-13 08:58N 51°57' E 004°05'0 0.0
2018-Apr-13 08:25N 51°57' E 004°05'0 0.0
2018-Apr-13 07:55N 51°57' E 004°05'0 0.0
2018-Apr-13 07:25N 51°57' E 004°05'0 0.0
2018-Apr-13 06:52N 51°57' E 004°05'0 0.0
2018-Apr-13 06:25N 51°57' E 004°05'0 0.0
2018-Apr-13 05:52N 51°57' E 004°05'0 0.0
2018-Apr-13 05:28N 51°57' E 004°05'0 0.0
2018-Apr-13 04:58N 51°57' E 004°05'0 0.0
2018-Apr-13 04:28N 51°57' E 004°05'0 0.0
2018-Apr-13 03:58N 51°57' E 004°05'0 0.0
2018-Apr-13 03:28N 51°57' E 004°05'0 0.0
2018-Apr-13 02:55N 51°57' E 004°05'0 0.0
2018-Apr-13 02:28N 51°57' E 004°05'0 0.0
2018-Apr-13 01:58N 51°57' E 004°05'0 0.0
2018-Apr-13 01:28N 51°57' E 004°05'0 0.0
2018-Apr-13 00:58N 51°57' E 004°05'0 0.0
2018-Apr-13 00:25N 51°57' E 004°05'0 0.0
2018-Apr-12 23:58N 51°57' E 004°05'0 0.0
2018-Apr-12 23:25N 51°57' E 004°05'0 0.0
2018-Apr-12 22:55N 51°57' E 004°05'0 0.0
2018-Apr-12 22:25N 51°57' E 004°05'0 0.0
2018-Apr-12 21:55N 51°57' E 004°05'0 0.0
2018-Apr-12 21:28N 51°57' E 004°05'0 0.0
2018-Apr-12 20:58N 51°57' E 004°05'0 0.0
2018-Apr-12 20:28N 51°57' E 004°05'0 0.0
2018-Apr-12 19:55N 51°57' E 004°05'0 0.0
2018-Apr-12 19:28N 51°57' E 004°05'0 0.0
2018-Apr-12 18:58N 51°57' E 004°05'0 0.0
2018-Apr-12 18:25N 51°57' E 004°05'0 0.0
2018-Apr-12 18:01N 51°57' E 004°05'2 4.2
2018-Apr-12 17:30N 51°59' E 004°04'4 7.6
2018-Apr-12 17:01N 51°60' E 003°58'5 9.2
2018-Apr-12 16:30N 52°00' E 003°51'3 5.8
2018-Apr-12 16:00N 51°58' E 003°47'1 2.3
2018-Apr-12 15:28N 51°57' E 003°46'0 0.1
2018-Apr-12 14:58N 51°57' E 003°46'0 0.1
2018-Apr-12 14:25N 51°57' E 003°46'0 0.1
2018-Apr-12 13:58N 51°57' E 003°46'0 0.0
2018-Apr-12 13:28N 51°57' E 003°46'0 0.6
2018-Apr-12 13:00N 51°57' E 003°46'4 7.8
2018-Apr-12 12:30N 51°57' E 003°40'714.0
2018-Apr-12 11:59N 51°56' E 003°29'714.4
2018-Apr-12 11:28N 51°54' E 003°17'2513.7
2018-Apr-12 09:40N 51°46' E 002°39'513.0
2018-Apr-12 09:18N 51°43' E 002°34'412.9
2018-Apr-12 09:00N 51°40' E 002°30'712.8
2018-Apr-12 08:28N 51°35' E 002°22'612.6
2018-Apr-12 07:59N 51°30' E 002°15'612.6
2018-Apr-12 07:30N 51°25' E 002°10'612.1
2018-Apr-12 07:00N 51°20' E 002°07'611.7
2018-Apr-12 06:31N 51°14' E 002°05'  
Track history (hours):
 
Tides and Currents Weather Stations Pressure Air Temp Water Temp Dewpoint Dewpoint Depression Visibility Wind Speed Wind Dir Waves Ship Positions

Elisalex Schulte

Last reported at 2018-Apr-22 06:29 UTC. Time now 2018-Apr-22 06:50 UTC.
Position N 49°28' E 000°33'.

Length 144 m; draft 6 m.

Type: Tanker. MMSI: 563052000.

Date/timePositionNaut miles runAvg speedWind from/ knotsBaromVisibWave heightAir tempDewpointWater temp
2018-Apr-22 06:29N 49°28' E 000°33'0 0.0
2018-Apr-22 05:59N 49°28' E 000°33'0 0.0
2018-Apr-22 05:29N 49°28' E 000°33'0 0.0
2018-Apr-22 04:59N 49°28' E 000°33'0 0.0
2018-Apr-22 04:29N 49°28' E 000°33'0 0.0
2018-Apr-22 03:59N 49°28' E 000°33'0 0.0
2018-Apr-22 03:29N 49°28' E 000°33'0 0.0
2018-Apr-22 02:59N 49°28' E 000°33'0 0.0
2018-Apr-22 02:29N 49°28' E 000°33'0 0.0
2018-Apr-22 01:59N 49°28' E 000°33'0 0.0
2018-Apr-22 01:29N 49°28' E 000°33'0 0.0
2018-Apr-22 00:59N 49°28' E 000°33'0 0.0
2018-Apr-22 00:29N 49°28' E 000°33'0 0.5
2018-Apr-22 00:01N 49°28' E 000°33'3 5.8
2018-Apr-21 23:30N 49°29' E 000°29'611.6
2018-Apr-21 23:01N 49°26' E 000°21'611.1
2018-Apr-21 22:31N 49°26' E 000°13'510.6
2018-Apr-21 22:01N 49°26' E 000°05'510.0
2018-Apr-21 21:31N 49°28' W 000°02'4 7.6
2018-Apr-21 21:00N 49°29' W 000°08'1 1.0
2018-Apr-21 20:25N 49°29' W 000°09'0 0.0
2018-Apr-21 19:58N 49°29' W 000°09'0 0.0
2018-Apr-21 19:28N 49°28' W 000°09'0 0.0
2018-Apr-21 18:58N 49°28' W 000°09'0 0.0
2018-Apr-21 18:28N 49°29' W 000°09'0 0.0
2018-Apr-21 17:58N 49°29' W 000°09'0 0.0
2018-Apr-21 17:28N 49°29' W 000°09'0 0.0
2018-Apr-21 16:58N 49°29' W 000°09'0 0.1
2018-Apr-21 16:28N 49°29' W 000°09'0 0.0
2018-Apr-21 15:58N 49°29' W 000°09'0 0.1
2018-Apr-21 15:28N 49°29' W 000°09'0 0.2
2018-Apr-21 14:58N 49°29' W 000°09'0 0.0
2018-Apr-21 14:28N 49°29' W 000°09'0 0.0
2018-Apr-21 13:58N 49°29' W 000°09'0 0.0
2018-Apr-21 13:28N 49°29' W 000°09'0 0.0
2018-Apr-21 12:58N 49°29' W 000°09'0 0.0
2018-Apr-21 12:28N 49°29' W 000°09'0 0.0
2018-Apr-21 11:58N 49°29' W 000°09'0 0.0
2018-Apr-21 11:25N 49°29' W 000°09'0 0.0
2018-Apr-21 10:58N 49°29' W 000°09'0 0.1
2018-Apr-21 10:28N 49°29' W 000°09'0 0.3
2018-Apr-21 09:55N 49°29' W 000°09'0 0.1
2018-Apr-21 09:28N 49°29' W 000°09'0 0.0
2018-Apr-21 08:58N 49°29' W 000°09'0 0.1
2018-Apr-21 08:28N 49°28' W 000°09'0 0.0
2018-Apr-21 07:55N 49°28' W 000°09'0 0.0
2018-Apr-21 07:28N 49°28' W 000°09'0 0.0
2018-Apr-21 06:58N 49°29' W 000°09'0 0.0
2018-Apr-21 06:28N 49°29' W 000°09'0 0.0
2018-Apr-21 05:58N 49°29' W 000°09'0 0.0
2018-Apr-21 05:28N 49°29' W 000°09'0 0.0
2018-Apr-21 04:58N 49°29' W 000°09'0 0.0
2018-Apr-21 04:28N 49°29' W 000°09'0 0.0
2018-Apr-21 03:58N 49°29' W 000°09'0 0.0
2018-Apr-21 03:28N 49°29' W 000°09'0 0.2
2018-Apr-21 02:58N 49°29' W 000°09'0 0.1
2018-Apr-21 02:28N 49°29' W 000°09'0 0.0
2018-Apr-21 01:58N 49°29' W 000°09'0 0.0
2018-Apr-21 01:28N 49°29' W 000°09'0 0.0
2018-Apr-21 00:58N 49°29' W 000°09'0 0.0
2018-Apr-21 00:28N 49°29' W 000°09'0 0.0
2018-Apr-20 23:55N 49°29' W 000°09'0 0.4
2018-Apr-20 23:28N 49°29' W 000°09'0 0.1
2018-Apr-20 22:58N 49°29' W 000°09'1 1.9
2018-Apr-20 22:30N 49°28' W 000°10'4 7.5
2018-Apr-20 22:00N 49°31' W 000°15'713.2
2018-Apr-20 21:30N 49°34' W 000°23'713.4
2018-Apr-20 21:00N 49°38' W 000°32'713.1
2018-Apr-20 20:30N 49°39' W 000°42'612.4
2018-Apr-20 20:01N 49°42' W 000°50'612.3
2018-Apr-20 19:30N 49°45' W 000°59'611.8
2018-Apr-20 19:00N 49°47' W 001°07'510.6
2018-Apr-20 18:30N 49°49' W 001°15'5 9.7
2018-Apr-20 18:00N 49°50' W 001°22'5 9.1
2018-Apr-20 17:31N 49°52' W 001°29'5 9.3
2018-Apr-20 17:00N 49°53' W 001°36'5 9.1
2018-Apr-20 16:31N 49°55' W 001°42'5 9.2
2018-Apr-20 16:00N 49°57' W 001°49'5 9.6
2018-Apr-20 15:30N 49°58' W 001°56'510.0
2018-Apr-20 15:01N 49°57' W 002°04'611.1
2018-Apr-20 14:31N 49°56' W 002°12'612.0
2018-Apr-20 14:00N 49°54' W 002°21'712.7
2018-Apr-20 13:27N 49°52' W 002°31'612.9
2018-Apr-20 13:01N 49°51' W 002°40'813.1
2018-Apr-20 12:26N 49°49' W 002°51'613.3
2018-Apr-20 12:01N 49°47' W 002°60'713.3
2018-Apr-20 11:30N 49°45' W 003°10'713.2
2018-Apr-20 11:00N 49°43' W 003°19'713.3
2018-Apr-20 10:30N 49°42' W 003°29'713.4
2018-Apr-20 10:00N 49°40' W 003°40'713.7
2018-Apr-20 09:30N 49°38' W 003°50'713.6
2018-Apr-20 09:00N 49°37' W 004°00'714.1
2018-Apr-20 08:30N 49°39' W 004°11'714.1
2018-Apr-20 08:00N 49°40' W 004°22'714.0
2018-Apr-20 07:30N 49°41' W 004°32'713.9
2018-Apr-20 07:00N 49°42' W 004°43'713.7
2018-Apr-20 06:30N 49°43' W 004°53'713.5
2018-Apr-20 06:00N 49°44' W 005°04'713.3
2018-Apr-20 05:30N 49°45' W 005°14'713.1
2018-Apr-20 05:01N 49°46' W 005°24'612.8
2018-Apr-20 04:30N 49°47' W 005°33'612.5
2018-Apr-20 04:00N 49°48' W 005°43'611.7
2018-Apr-20 03:30N 49°50' W 005°52'611.9
2018-Apr-20 03:00N 49°54' W 005°59'610.9
2018-Apr-20 02:30N 49°59' W 006°01'612.4
2018-Apr-20 01:59N 50°06' W 006°01'612.8
2018-Apr-20 01:31N 50°12' W 006°01'713.1
2018-Apr-20 01:00N 50°18' W 006°01'713.3
2018-Apr-20 00:31N 50°25' W 006°01'713.3
2018-Apr-20 00:01N 50°32' W 006°01'713.1
2018-Apr-19 23:27N 50°39' W 006°01'712.9
2018-Apr-19 22:53N 50°46' W 006°01'512.6
2018-Apr-19 22:30N 50°51' W 006°00'612.4
2018-Apr-19 22:00N 50°57' W 006°00'612.1
2018-Apr-19 21:30N 51°03' W 006°00'611.6
2018-Apr-19 21:00N 51°09' W 005°60'611.6
2018-Apr-19 20:30N 51°15' W 005°60'611.5
2018-Apr-19 20:00N 51°21' W 005°60'611.5
2018-Apr-19 19:31N 51°26' W 005°59'711.8
2018-Apr-19 18:55N 51°33' W 005°59'512.4
2018-Apr-19 18:30N 51°38' W 005°59'1312.7
2018-Apr-19 17:29N 51°51' W 005°54'4514.2
2018-Apr-19 14:21N 52°34' W 005°36'1513.2
2018-Apr-19 13:12N 52°49' W 005°29'312.2
2018-Apr-19 12:57N 52°52' W 005°27'62 9.5
2018-Apr-19 06:26N 53°34' W 004°12'613.9
2018-Apr-19 06:00N 53°34' W 004°01'714.1
2018-Apr-19 05:30N 53°33' W 003°49'714.2
2018-Apr-19 05:00N 53°33' W 003°38'714.5
2018-Apr-19 04:30N 53°33' W 003°26'712.7
2018-Apr-19 04:00N 53°31' W 003°15'510.7
2018-Apr-19 03:30N 53°31' W 003°06'5 9.4
2018-Apr-19 03:00N 53°27' W 003°01'0 0.1
2018-Apr-19 02:30N 53°27' W 003°01'0 0.5
2018-Apr-19 01:55N 53°27' W 003°01'0 0.0
2018-Apr-19 01:22N 53°27' W 003°01'0 0.0
2018-Apr-19 00:55N 53°27' W 003°01'0 0.0
2018-Apr-19 00:28N 53°27' W 003°01'0 0.0
2018-Apr-18 23:58N 53°27' W 003°01'0 0.0
2018-Apr-18 23:28N 53°27' W 003°01'0 0.0
2018-Apr-18 22:58N 53°27' W 003°01'0 0.0
2018-Apr-18 22:25N 53°27' W 003°01'0 0.0
2018-Apr-18 21:58N 53°27' W 003°01'0 0.0
2018-Apr-18 21:19N 53°27' W 003°01'0 0.0
2018-Apr-18 20:58N 53°27' W 003°01'0 0.0
2018-Apr-18 20:25N 53°27' W 003°01'0 0.0
2018-Apr-18 19:58N 53°27' W 003°01'0 0.0
2018-Apr-18 19:25N 53°27' W 003°01'0 0.0
2018-Apr-18 18:58N 53°27' W 003°01'0 0.0
2018-Apr-18 18:28N 53°27' W 003°01'0 0.0
2018-Apr-18 17:58N 53°27' W 003°01'0 0.0
2018-Apr-18 17:28N 53°27' W 003°01'0 0.0
2018-Apr-18 16:52N 53°27' W 003°01'0 0.0
2018-Apr-18 16:28N 53°27' W 003°01'0 0.0
2018-Apr-18 15:58N 53°27' W 003°01'0 0.0
2018-Apr-18 15:28N 53°27' W 003°01'0 0.0
2018-Apr-18 14:55N 53°27' W 003°01'0 0.0
2018-Apr-18 14:28N 53°27' W 003°01'0 0.0
2018-Apr-18 13:52N 53°27' W 003°01'0 0.0
2018-Apr-18 13:28N 53°27' W 003°01'0 0.0
2018-Apr-18 12:55N 53°27' W 003°01'0 0.0
2018-Apr-18 12:22N 53°27' W 003°01'0 0.0
2018-Apr-18 11:58N 53°27' W 003°01'0 0.0
2018-Apr-18 11:25N 53°27' W 003°01'0 0.0
2018-Apr-18 10:58N 53°27' W 003°01'0 0.0
2018-Apr-18 10:28N 53°27' W 003°01'0 0.0
2018-Apr-18 10:00N 53°27' W 003°01'0 0.8
2018-Apr-18 09:30N 53°27' W 003°01'0 1.0
2018-Apr-18 09:00N 53°27' W 003°00'1 1.0
2018-Apr-18 08:30N 53°26' W 003°00'0 0.3
2018-Apr-18 08:00N 53°26' W 003°00'0 0.0
2018-Apr-18 07:29N 53°26' W 003°00'0 0.0
2018-Apr-18 06:56N 53°26' W 003°00'0 0.0
2018-Apr-18 06:29N 53°26' W 003°00'0 0.0
2018-Apr-18 05:59N 53°26' W 003°00'0 0.0
2018-Apr-18 05:29N 53°26' W 003°00'0 0.0
2018-Apr-18 04:53N 53°26' W 003°00'0 0.0
2018-Apr-18 04:29N 53°26' W 003°00'0 0.0
2018-Apr-18 03:53N 53°26' W 003°00'0 0.0
2018-Apr-18 03:29N 53°26' W 003°00'0 0.0
2018-Apr-18 02:59N 53°26' W 003°00'0 0.0
2018-Apr-18 02:29N 53°26' W 003°00'0 0.0
2018-Apr-18 01:59N 53°26' W 003°00'0 0.0
2018-Apr-18 01:29N 53°26' W 003°00'0 0.0
2018-Apr-18 00:59N 53°26' W 003°00'0 0.0
2018-Apr-18 00:29N 53°26' W 003°00'0 0.0
2018-Apr-17 23:59N 53°26' W 003°00'0 0.0
2018-Apr-17 23:29N 53°26' W 003°00'0 0.0
2018-Apr-17 22:59N 53°26' W 003°00'0 0.0
2018-Apr-17 22:29N 53°26' W 003°00'0 0.0
2018-Apr-17 21:59N 53°26' W 003°00'0 0.0
2018-Apr-17 21:26N 53°26' W 003°00'0 0.0
2018-Apr-17 20:59N 53°26' W 003°00'0 0.0
2018-Apr-17 20:29N 53°26' W 003°00'0 0.0
2018-Apr-17 19:56N 53°26' W 003°00'0 0.0
2018-Apr-17 19:29N 53°26' W 003°00'0 0.0
2018-Apr-17 18:53N 53°26' W 003°00'0 0.0
2018-Apr-17 18:26N 53°26' W 003°00'0 0.0
2018-Apr-17 17:59N 53°26' W 003°00'0 0.0
2018-Apr-17 17:29N 53°26' W 003°00'0 0.0
2018-Apr-17 16:59N 53°26' W 003°00'0 0.0
2018-Apr-17 16:29N 53°26' W 003°00'0 0.0
2018-Apr-17 15:53N 53°26' W 003°00'0 0.0
2018-Apr-17 15:29N 53°26' W 003°00'0 0.0
2018-Apr-17 14:59N 53°26' W 003°00'0 0.0
2018-Apr-17 14:29N 53°26' W 003°00'0 0.0
2018-Apr-17 13:59N 53°26' W 003°00'0 0.0
2018-Apr-17 13:29N 53°26' W 003°00'0 0.0
2018-Apr-17 12:56N 53°26' W 003°00'0 0.0
2018-Apr-17 12:29N 53°26' W 003°00'0 0.2
2018-Apr-17 12:00N 53°26' W 003°00'1 1.1
2018-Apr-17 11:30N 53°26' W 003°00'0 0.2
2018-Apr-17 11:00N 53°26' W 003°01'0 0.2
2018-Apr-17 10:30N 53°26' W 003°01'0 1.0
2018-Apr-17 10:00N 53°26' W 003°01'3 7.0
2018-Apr-17 09:30N 53°29' W 003°05'4 8.4
2018-Apr-17 09:00N 53°32' W 003°10'4 8.8
2018-Apr-17 08:30N 53°31' W 003°17'3 6.2
2018-Apr-17 08:00N 53°31' W 003°23'3 5.9
2018-Apr-17 07:30N 53°31' W 003°28'611.9
2018-Apr-17 07:00N 53°31' W 003°37'712.7
2018-Apr-17 06:28N 53°30' W 003°49'214 9.1
2018-Apr-16 07:05N 50°02' W 005°01'110.8
2018-Apr-16 06:57N 50°03' W 005°01'3 7.4
2018-Apr-16 06:29N 50°06' W 005°02'3 5.8
2018-Apr-16 05:58N 50°09' W 005°02'3 0.1
2018-Apr-15 03:53N 50°07' W 005°01'2 4.9
2018-Apr-15 03:30N 50°05' W 004°60'2 4.9
2018-Apr-15 03:00N 50°06' W 004°56'1 2.7
2018-Apr-15 02:30N 50°07' W 004°55'1 1.4
2018-Apr-15 01:51N 50°06' W 004°54'0 1.3
2018-Apr-15 01:30N 50°06' W 004°54'1 1.2
2018-Apr-15 00:57N 50°05' W 004°54'1 1.1
2018-Apr-15 00:30N 50°05' W 004°53'0 0.3
2018-Apr-14 23:50N 50°05' W 004°53'2 5.7
2018-Apr-14 23:30N 50°05' W 004°56'1 2.2
2018-Apr-14 22:58N 50°05' W 004°58'2710.1
2018-Apr-14 20:19N 50°00' W 004°17'2111.3
2018-Apr-14 18:27N 50°00' W 003°44'610.6
2018-Apr-14 17:55N 50°00' W 003°35'510.5
2018-Apr-14 17:26N 50°00' W 003°28'510.6
2018-Apr-14 17:00N 50°00' W 003°20'610.8
2018-Apr-14 16:26N 49°60' W 003°11'511.1
2018-Apr-14 16:00N 49°60' W 003°03'611.6
2018-Apr-14 15:30N 49°60' W 002°54'612.3
2018-Apr-14 15:00N 50°02' W 002°45'713.1
2018-Apr-14 14:28N 50°04' W 002°35'1614.3
2018-Apr-14 13:20N 50°08' W 002°10'516.2
2018-Apr-14 13:00N 50°09' W 002°03'815.6
2018-Apr-14 12:30N 50°12' W 001°51'815.3
2018-Apr-14 12:00N 50°14' W 001°39'814.7
2018-Apr-14 11:29N 50°16' W 001°28'914.2
2018-Apr-14 10:52N 50°18' W 001°15'613.3
2018-Apr-14 10:24N 50°20' W 001°05'512.5
2018-Apr-14 10:00N 50°21' W 000°58'611.5
2018-Apr-14 09:30N 50°23' W 000°49'510.6
2018-Apr-14 09:00N 50°24' W 000°41'1110.1
2018-Apr-14 07:55N 50°27' W 000°24'410.3
2018-Apr-14 07:30N 50°28' W 000°18'510.7
2018-Apr-14 07:00N 50°30' W 000°10'611.1
2018-Apr-14 06:29N 50°31' W 000°01'611.5
2018-Apr-14 05:59N 50°33' E 000°08'611.5
2018-Apr-14 05:30N 50°34' E 000°16'611.9
2018-Apr-14 05:00N 50°36' E 000°25'612.6
2018-Apr-14 04:30N 50°37' E 000°35'612.9
2018-Apr-14 04:00N 50°41' E 000°43'713.0
2018-Apr-14 03:30N 50°45' E 000°51'612.8
2018-Apr-14 03:00N 50°49' E 000°59'612.7
2018-Apr-14 02:30N 50°53' E 001°07'812.6
2018-Apr-14 01:51N 50°59' E 001°17'411.9
2018-Apr-14 01:30N 51°01' E 001°22'611.4
2018-Apr-14 01:00N 51°05' E 001°29'510.4
2018-Apr-14 00:30N 51°08' E 001°35'510.0
2018-Apr-14 00:00N 51°11' E 001°42'510.0
2018-Apr-13 23:30N 51°15' E 001°47'510.5
2018-Apr-13 23:00N 51°20' E 001°51'611.1
2018-Apr-13 22:30N 51°24' E 001°56'611.5
2018-Apr-13 22:00N 51°29' E 002°01'611.7
2018-Apr-13 21:30N 51°33' E 002°07'612.2
2018-Apr-13 21:00N 51°38' E 002°14'712.9
2018-Apr-13 20:29N 51°43' E 002°21'5212.4
2018-Apr-13 16:15N 52°04' E 003°39'412.5
2018-Apr-13 15:58N 52°04' E 003°45'612.1
2018-Apr-13 15:30N 52°03' E 003°54'4 8.5
2018-Apr-13 15:00N 52°01' E 003°60'5 9.1
2018-Apr-13 14:30N 51°58' E 004°05'1 2.0
2018-Apr-13 13:58N 51°57' E 004°05'0 0.0
2018-Apr-13 13:19N 51°57' E 004°05'0 0.0
2018-Apr-13 12:58N 51°57' E 004°05'0 0.0
2018-Apr-13 12:25N 51°57' E 004°05'0 0.0
2018-Apr-13 11:55N 51°57' E 004°05'0 0.0
2018-Apr-13 11:16N 51°57' E 004°05'0 0.0
2018-Apr-13 10:58N 51°57' E 004°05'0 0.0
2018-Apr-13 10:19N 51°57' E 004°05'0 0.0
2018-Apr-13 09:58N 51°57' E 004°05'0 0.0
2018-Apr-13 09:28N 51°57' E 004°05'0 0.0
2018-Apr-13 08:58N 51°57' E 004°05'0 0.0
2018-Apr-13 08:25N 51°57' E 004°05'0 0.0
2018-Apr-13 07:55N 51°57' E 004°05'0 0.0
2018-Apr-13 07:25N 51°57' E 004°05'0 0.0
2018-Apr-13 06:52N 51°57' E 004°05'0 0.0
2018-Apr-13 06:25N 51°57' E 004°05'0 0.0
2018-Apr-13 05:52N 51°57' E 004°05'0 0.0
2018-Apr-13 05:28N 51°57' E 004°05'0 0.0
2018-Apr-13 04:58N 51°57' E 004°05'0 0.0
2018-Apr-13 04:28N 51°57' E 004°05'0 0.0
2018-Apr-13 03:58N 51°57' E 004°05'0 0.0
2018-Apr-13 03:28N 51°57' E 004°05'0 0.0
2018-Apr-13 02:55N 51°57' E 004°05'0 0.0
2018-Apr-13 02:28N 51°57' E 004°05'0 0.0
2018-Apr-13 01:58N 51°57' E 004°05'0 0.0
2018-Apr-13 01:28N 51°57' E 004°05'0 0.0
2018-Apr-13 00:58N 51°57' E 004°05'0 0.0
2018-Apr-13 00:25N 51°57' E 004°05'0 0.0
2018-Apr-12 23:58N 51°57' E 004°05'0 0.0
2018-Apr-12 23:25N 51°57' E 004°05'0 0.0
2018-Apr-12 22:55N 51°57' E 004°05'0 0.0
2018-Apr-12 22:25N 51°57' E 004°05'0 0.0
2018-Apr-12 21:55N 51°57' E 004°05'0 0.0
2018-Apr-12 21:28N 51°57' E 004°05'0 0.0
2018-Apr-12 20:58N 51°57' E 004°05'0 0.0
2018-Apr-12 20:28N 51°57' E 004°05'0 0.0
2018-Apr-12 19:55N 51°57' E 004°05'0 0.0
2018-Apr-12 19:28N 51°57' E 004°05'0 0.0
2018-Apr-12 18:58N 51°57' E 004°05'0 0.0
2018-Apr-12 18:25N 51°57' E 004°05'0 0.0
2018-Apr-12 18:01N 51°57' E 004°05'2 4.2
2018-Apr-12 17:30N 51°59' E 004°04'4 7.6
2018-Apr-12 17:01N 51°60' E 003°58'5 9.2
2018-Apr-12 16:30N 52°00' E 003°51'3 5.8
2018-Apr-12 16:00N 51°58' E 003°47'1 2.3
2018-Apr-12 15:28N 51°57' E 003°46'0 0.1
2018-Apr-12 14:58N 51°57' E 003°46'0 0.1
2018-Apr-12 14:25N 51°57' E 003°46'0 0.1
2018-Apr-12 13:58N 51°57' E 003°46'0 0.0
2018-Apr-12 13:28N 51°57' E 003°46'0 0.6
2018-Apr-12 13:00N 51°57' E 003°46'4 7.8
2018-Apr-12 12:30N 51°57' E 003°40'714.0
2018-Apr-12 11:59N 51°56' E 003°29'714.4
2018-Apr-12 11:28N 51°54' E 003°17'2513.7
2018-Apr-12 09:40N 51°46' E 002°39'513.0
2018-Apr-12 09:18N 51°43' E 002°34'412.9
2018-Apr-12 09:00N 51°40' E 002°30'712.8
2018-Apr-12 08:28N 51°35' E 002°22'612.6
2018-Apr-12 07:59N 51°30' E 002°15'612.6
2018-Apr-12 07:30N 51°25' E 002°10'612.1
2018-Apr-12 07:00N 51°20' E 002°07'611.7
2018-Apr-12 06:31N 51°14' E 002°05'  

Dump ship's entire track history